sensor_id;sensor_type;location;lat;lon;timestamp;P1;durP1;ratioP1;P2;durP2;ratioP2
78312;SDS011;67568;47.438;21.408;2023-02-28T00:00:55;11.93;;;5.07;;
78312;SDS011;67568;47.438;21.408;2023-02-28T00:03:21;14.13;;;5.63;;
78312;SDS011;67568;47.438;21.408;2023-02-28T00:05:48;14.85;;;5.32;;
78312;SDS011;67568;47.438;21.408;2023-02-28T00:08:15;11.27;;;5.25;;
78312;SDS011;67568;47.438;21.408;2023-02-28T00:10:41;14.17;;;5.20;;
78312;SDS011;67568;47.438;21.408;2023-02-28T00:13:08;12.77;;;5.65;;
78312;SDS011;67568;47.438;21.408;2023-02-28T00:15:38;13.45;;;6.13;;
78312;SDS011;67568;47.438;21.408;2023-02-28T00:18:04;13.52;;;5.65;;
78312;SDS011;67568;47.438;21.408;2023-02-28T00:20:34;13.98;;;5.38;;
78312;SDS011;67568;47.438;21.408;2023-02-28T00:23:03;11.80;;;5.40;;
78312;SDS011;67568;47.438;21.408;2023-02-28T00:25:32;12.50;;;5.30;;
78312;SDS011;67568;47.438;21.408;2023-02-28T00:27:59;11.45;;;5.82;;
78312;SDS011;67568;47.438;21.408;2023-02-28T00:30:28;13.40;;;5.55;;
78312;SDS011;67568;47.438;21.408;2023-02-28T00:32:54;11.80;;;5.22;;
78312;SDS011;67568;47.438;21.408;2023-02-28T00:35:21;10.03;;;4.70;;
78312;SDS011;67568;47.438;21.408;2023-02-28T00:37:48;10.95;;;4.72;;
78312;SDS011;67568;47.438;21.408;2023-02-28T00:40:15;12.60;;;5.47;;
78312;SDS011;67568;47.438;21.408;2023-02-28T00:42:41;12.88;;;5.40;;
78312;SDS011;67568;47.438;21.408;2023-02-28T00:45:08;12.18;;;5.05;;
78312;SDS011;67568;47.438;21.408;2023-02-28T00:47:35;13.30;;;5.13;;
78312;SDS011;67568;47.438;21.408;2023-02-28T00:50:02;10.60;;;4.88;;
78312;SDS011;67568;47.438;21.408;2023-02-28T00:52:30;12.60;;;5.63;;
78312;SDS011;67568;47.438;21.408;2023-02-28T00:54:56;12.57;;;5.60;;
78312;SDS011;67568;47.438;21.408;2023-02-28T00:57:23;11.27;;;4.82;;
78312;SDS011;67568;47.438;21.408;2023-02-28T00:59:53;13.13;;;5.00;;
78312;SDS011;67568;47.438;21.408;2023-02-28T01:02:26;11.23;;;4.45;;
78312;SDS011;67568;47.438;21.408;2023-02-28T01:04:52;12.02;;;5.40;;
78312;SDS011;67568;47.438;21.408;2023-02-28T01:07:19;9.82;;;4.78;;
78312;SDS011;67568;47.438;21.408;2023-02-28T01:09:46;12.93;;;5.10;;
78312;SDS011;67568;47.438;21.408;2023-02-28T01:12:12;10.83;;;4.97;;
78312;SDS011;67568;47.438;21.408;2023-02-28T01:14:39;11.82;;;5.60;;
78312;SDS011;67568;47.438;21.408;2023-02-28T01:17:06;12.57;;;5.28;;
78312;SDS011;67568;47.438;21.408;2023-02-28T01:19:36;11.20;;;5.30;;
78312;SDS011;67568;47.438;21.408;2023-02-28T01:22:06;10.50;;;4.88;;
78312;SDS011;67568;47.438;21.408;2023-02-28T01:24:33;11.40;;;4.87;;
78312;SDS011;67568;47.438;21.408;2023-02-28T01:27:00;11.15;;;5.03;;
78312;SDS011;67568;47.438;21.408;2023-02-28T01:29:27;12.57;;;4.72;;
78312;SDS011;67568;47.438;21.408;2023-02-28T01:31:55;12.60;;;5.18;;
78312;SDS011;67568;47.438;21.408;2023-02-28T01:34:22;10.90;;;4.38;;
78312;SDS011;67568;47.438;21.408;2023-02-28T01:36:49;10.97;;;5.13;;
78312;SDS011;67568;47.438;21.408;2023-02-28T01:39:15;13.63;;;5.18;;
78312;SDS011;67568;47.438;21.408;2023-02-28T01:41:42;11.05;;;4.45;;
78312;SDS011;67568;47.438;21.408;2023-02-28T01:47:13;10.80;;;4.65;;
78312;SDS011;67568;47.438;21.408;2023-02-28T01:49:42;11.23;;;4.67;;
78312;SDS011;67568;47.438;21.408;2023-02-28T01:52:08;9.85;;;4.78;;
78312;SDS011;67568;47.438;21.408;2023-02-28T01:54:37;10.02;;;4.53;;
78312;SDS011;67568;47.438;21.408;2023-02-28T01:57:05;13.60;;;5.10;;
78312;SDS011;67568;47.438;21.408;2023-02-28T01:59:43;13.38;;;5.22;;
78312;SDS011;67568;47.438;21.408;2023-02-28T02:02:14;12.80;;;4.83;;
78312;SDS011;67568;47.438;21.408;2023-02-28T02:04:52;11.85;;;4.75;;
78312;SDS011;67568;47.438;21.408;2023-02-28T02:07:24;10.02;;;4.72;;
78312;SDS011;67568;47.438;21.408;2023-02-28T02:09:59;12.43;;;4.97;;
78312;SDS011;67568;47.438;21.408;2023-02-28T02:12:52;14.35;;;5.60;;
78312;SDS011;67568;47.438;21.408;2023-02-28T02:18:40;9.15;;;4.50;;
78312;SDS011;67568;47.438;21.408;2023-02-28T02:26:58;9.40;;;4.35;;
78312;SDS011;67568;47.438;21.408;2023-02-28T02:35:56;10.77;;;4.60;;
78312;SDS011;67568;47.438;21.408;2023-02-28T02:44:02;11.17;;;4.97;;
78312;SDS011;67568;47.438;21.408;2023-02-28T02:46:38;11.93;;;5.00;;
78312;SDS011;67568;47.438;21.408;2023-02-28T02:49:09;12.20;;;5.40;;
78312;SDS011;67568;47.438;21.408;2023-02-28T02:51:45;10.15;;;5.03;;
78312;SDS011;67568;47.438;21.408;2023-02-28T02:54:35;12.35;;;4.82;;
78312;SDS011;67568;47.438;21.408;2023-02-28T02:57:08;11.93;;;4.90;;
78312;SDS011;67568;47.438;21.408;2023-02-28T02:59:39;10.40;;;4.93;;
78312;SDS011;67568;47.438;21.408;2023-02-28T03:02:10;9.27;;;4.55;;
78312;SDS011;67568;47.438;21.408;2023-02-28T03:04:46;10.43;;;4.28;;
78312;SDS011;67568;47.438;21.408;2023-02-28T03:07:18;10.13;;;4.75;;
78312;SDS011;67568;47.438;21.408;2023-02-28T03:09:51;10.40;;;5.43;;
78312;SDS011;67568;47.438;21.408;2023-02-28T03:12:19;10.77;;;4.70;;
78312;SDS011;67568;47.438;21.408;2023-02-28T03:23:48;9.50;;;4.37;;
78312;SDS011;67568;47.438;21.408;2023-02-28T03:26:23;10.73;;;4.93;;
78312;SDS011;67568;47.438;21.408;2023-02-28T03:31:39;10.27;;;4.40;;
78312;SDS011;67568;47.438;21.408;2023-02-28T03:34:32;10.00;;;4.57;;
78312;SDS011;67568;47.438;21.408;2023-02-28T03:37:08;15.60;;;4.87;;
78312;SDS011;67568;47.438;21.408;2023-02-28T03:39:46;10.93;;;4.72;;
78312;SDS011;67568;47.438;21.408;2023-02-28T03:42:20;10.00;;;4.28;;
78312;SDS011;67568;47.438;21.408;2023-02-28T03:44:51;9.93;;;4.22;;
78312;SDS011;67568;47.438;21.408;2023-02-28T03:50:00;9.77;;;4.77;;
78312;SDS011;67568;47.438;21.408;2023-02-28T03:52:32;10.98;;;4.88;;
78312;SDS011;67568;47.438;21.408;2023-02-28T03:55:08;10.02;;;5.00;;
78312;SDS011;67568;47.438;21.408;2023-02-28T04:00:26;10.13;;;4.60;;
78312;SDS011;67568;47.438;21.408;2023-02-28T04:02:56;10.03;;;4.27;;
78312;SDS011;67568;47.438;21.408;2023-02-28T04:05:23;11.43;;;4.95;;
78312;SDS011;67568;47.438;21.408;2023-02-28T04:07:51;11.05;;;5.25;;
78312;SDS011;67568;47.438;21.408;2023-02-28T04:10:17;13.50;;;4.85;;
78312;SDS011;67568;47.438;21.408;2023-02-28T04:12:44;12.63;;;5.15;;
78312;SDS011;67568;47.438;21.408;2023-02-28T04:15:11;11.60;;;4.50;;
78312;SDS011;67568;47.438;21.408;2023-02-28T04:17:38;14.57;;;4.68;;
78312;SDS011;67568;47.438;21.408;2023-02-28T04:20:04;10.35;;;4.97;;
78312;SDS011;67568;47.438;21.408;2023-02-28T04:22:31;11.27;;;4.53;;
78312;SDS011;67568;47.438;21.408;2023-02-28T04:25:01;11.88;;;5.07;;
78312;SDS011;67568;47.438;21.408;2023-02-28T04:27:27;9.87;;;4.80;;
78312;SDS011;67568;47.438;21.408;2023-02-28T04:29:57;12.43;;;4.78;;
78312;SDS011;67568;47.438;21.408;2023-02-28T04:32:31;9.15;;;4.15;;
78312;SDS011;67568;47.438;21.408;2023-02-28T04:35:01;10.02;;;4.43;;
78312;SDS011;67568;47.438;21.408;2023-02-28T04:37:27;9.35;;;4.72;;
78312;SDS011;67568;47.438;21.408;2023-02-28T04:39:54;8.57;;;3.77;;
78312;SDS011;67568;47.438;21.408;2023-02-28T04:42:21;11.45;;;4.78;;
78312;SDS011;67568;47.438;21.408;2023-02-28T04:44:47;9.63;;;4.43;;
78312;SDS011;67568;47.438;21.408;2023-02-28T04:47:17;11.32;;;4.40;;
78312;SDS011;67568;47.438;21.408;2023-02-28T04:49:44;8.60;;;3.95;;
78312;SDS011;67568;47.438;21.408;2023-02-28T04:52:11;9.80;;;3.90;;
78312;SDS011;67568;47.438;21.408;2023-02-28T04:54:38;8.63;;;3.95;;
78312;SDS011;67568;47.438;21.408;2023-02-28T04:57:04;10.48;;;4.00;;
78312;SDS011;67568;47.438;21.408;2023-02-28T04:59:31;9.45;;;3.95;;
78312;SDS011;67568;47.438;21.408;2023-02-28T05:01:58;9.52;;;4.22;;
78312;SDS011;67568;47.438;21.408;2023-02-28T05:04:24;9.37;;;4.10;;
78312;SDS011;67568;47.438;21.408;2023-02-28T05:06:54;10.55;;;4.32;;
78312;SDS011;67568;47.438;21.408;2023-02-28T05:09:20;10.95;;;4.53;;
78312;SDS011;67568;47.438;21.408;2023-02-28T05:11:49;9.73;;;3.88;;
78312;SDS011;67568;47.438;21.408;2023-02-28T05:14:16;11.35;;;4.47;;
78312;SDS011;67568;47.438;21.408;2023-02-28T05:16:43;11.50;;;4.80;;
78312;SDS011;67568;47.438;21.408;2023-02-28T05:19:09;8.70;;;3.78;;
78312;SDS011;67568;47.438;21.408;2023-02-28T05:21:37;9.40;;;3.90;;
78312;SDS011;67568;47.438;21.408;2023-02-28T05:24:09;10.00;;;4.40;;
78312;SDS011;67568;47.438;21.408;2023-02-28T05:26:39;10.20;;;3.90;;
78312;SDS011;67568;47.438;21.408;2023-02-28T05:29:07;10.27;;;4.07;;
78312;SDS011;67568;47.438;21.408;2023-02-28T05:31:37;10.52;;;4.60;;
78312;SDS011;67568;47.438;21.408;2023-02-28T05:34:07;8.38;;;3.78;;
78312;SDS011;67568;47.438;21.408;2023-02-28T05:36:36;7.75;;;3.70;;
78312;SDS011;67568;47.438;21.408;2023-02-28T05:39:06;9.13;;;3.90;;
78312;SDS011;67568;47.438;21.408;2023-02-28T05:41:34;9.63;;;4.23;;
78312;SDS011;67568;47.438;21.408;2023-02-28T05:44:01;8.25;;;4.18;;
78312;SDS011;67568;47.438;21.408;2023-02-28T05:46:28;9.93;;;3.83;;
78312;SDS011;67568;47.438;21.408;2023-02-28T05:48:54;10.60;;;4.32;;
78312;SDS011;67568;47.438;21.408;2023-02-28T05:51:21;16.98;;;8.70;;
78312;SDS011;67568;47.438;21.408;2023-02-28T05:53:48;9.80;;;4.30;;
78312;SDS011;67568;47.438;21.408;2023-02-28T05:56:14;10.75;;;4.43;;
78312;SDS011;67568;47.438;21.408;2023-02-28T05:58:41;11.32;;;4.30;;
78312;SDS011;67568;47.438;21.408;2023-02-28T06:03:59;10.63;;;5.03;;
78312;SDS011;67568;47.438;21.408;2023-02-28T06:06:27;10.83;;;4.57;;
78312;SDS011;67568;47.438;21.408;2023-02-28T06:08:55;13.23;;;4.47;;
78312;SDS011;67568;47.438;21.408;2023-02-28T06:11:24;11.88;;;6.55;;
78312;SDS011;67568;47.438;21.408;2023-02-28T06:13:52;14.00;;;7.63;;
78312;SDS011;67568;47.438;21.408;2023-02-28T06:16:20;11.85;;;6.25;;
78312;SDS011;67568;47.438;21.408;2023-02-28T06:18:51;14.90;;;7.83;;
78312;SDS011;67568;47.438;21.408;2023-02-28T06:21:18;10.52;;;5.75;;
78312;SDS011;67568;47.438;21.408;2023-02-28T06:23:45;13.98;;;5.68;;
78312;SDS011;67568;47.438;21.408;2023-02-28T06:26:15;13.05;;;4.82;;
78312;SDS011;67568;47.438;21.408;2023-02-28T06:28:46;12.15;;;6.05;;
78312;SDS011;67568;47.438;21.408;2023-02-28T06:31:16;12.70;;;6.60;;
78312;SDS011;67568;47.438;21.408;2023-02-28T06:33:44;11.15;;;5.63;;
78312;SDS011;67568;47.438;21.408;2023-02-28T06:36:13;18.60;;;7.65;;
78312;SDS011;67568;47.438;21.408;2023-02-28T06:38:41;21.85;;;9.48;;
78312;SDS011;67568;47.438;21.408;2023-02-28T06:41:11;16.05;;;7.10;;
78312;SDS011;67568;47.438;21.408;2023-02-28T06:43:41;17.77;;;8.53;;
78312;SDS011;67568;47.438;21.408;2023-02-28T06:46:13;17.35;;;6.15;;
78312;SDS011;67568;47.438;21.408;2023-02-28T06:48:43;13.40;;;6.07;;
78312;SDS011;67568;47.438;21.408;2023-02-28T06:51:15;11.57;;;5.65;;
78312;SDS011;67568;47.438;21.408;2023-02-28T06:53:44;16.40;;;8.38;;
78312;SDS011;67568;47.438;21.408;2023-02-28T06:56:11;17.57;;;7.70;;
78312;SDS011;67568;47.438;21.408;2023-02-28T06:58:40;16.40;;;8.45;;
78312;SDS011;67568;47.438;21.408;2023-02-28T07:01:09;16.05;;;7.78;;
78312;SDS011;67568;47.438;21.408;2023-02-28T07:03:39;16.23;;;7.93;;
78312;SDS011;67568;47.438;21.408;2023-02-28T07:06:05;16.55;;;7.68;;
78312;SDS011;67568;47.438;21.408;2023-02-28T07:08:33;16.63;;;8.10;;
78312;SDS011;67568;47.438;21.408;2023-02-28T07:11:21;16.33;;;7.47;;
78312;SDS011;67568;47.438;21.408;2023-02-28T07:13:58;16.50;;;7.80;;
78312;SDS011;67568;47.438;21.408;2023-02-28T07:16:26;14.90;;;8.32;;
78312;SDS011;67568;47.438;21.408;2023-02-28T07:18:56;12.85;;;6.53;;
78312;SDS011;67568;47.438;21.408;2023-02-28T07:21:25;17.90;;;9.20;;
78312;SDS011;67568;47.438;21.408;2023-02-28T07:23:52;18.50;;;9.90;;
78312;SDS011;67568;47.438;21.408;2023-02-28T07:26:19;26.30;;;11.38;;
78312;SDS011;67568;47.438;21.408;2023-02-28T07:28:52;20.67;;;9.13;;
78312;SDS011;67568;47.438;21.408;2023-02-28T07:31:18;15.32;;;8.50;;
78312;SDS011;67568;47.438;21.408;2023-02-28T07:33:45;18.10;;;9.27;;
78312;SDS011;67568;47.438;21.408;2023-02-28T07:36:13;17.33;;;7.22;;
78312;SDS011;67568;47.438;21.408;2023-02-28T07:38:42;25.30;;;10.85;;
78312;SDS011;67568;47.438;21.408;2023-02-28T07:41:20;14.95;;;6.47;;
78312;SDS011;67568;47.438;21.408;2023-02-28T07:43:52;13.70;;;6.60;;
78312;SDS011;67568;47.438;21.408;2023-02-28T07:46:22;12.33;;;5.90;;
78312;SDS011;67568;47.438;21.408;2023-02-28T07:48:56;12.85;;;6.32;;
78312;SDS011;67568;47.438;21.408;2023-02-28T07:51:23;14.73;;;6.53;;
78312;SDS011;67568;47.438;21.408;2023-02-28T07:53:50;15.95;;;7.05;;
78312;SDS011;67568;47.438;21.408;2023-02-28T07:56:25;17.85;;;6.88;;
78312;SDS011;67568;47.438;21.408;2023-02-28T07:58:52;14.67;;;6.30;;
78312;SDS011;67568;47.438;21.408;2023-02-28T08:01:20;14.93;;;6.97;;
78312;SDS011;67568;47.438;21.408;2023-02-28T08:03:53;16.00;;;6.32;;
78312;SDS011;67568;47.438;21.408;2023-02-28T08:06:27;14.05;;;7.00;;
78312;SDS011;67568;47.438;21.408;2023-02-28T08:08:55;17.48;;;7.57;;
78312;SDS011;67568;47.438;21.408;2023-02-28T08:11:24;16.50;;;7.20;;
78312;SDS011;67568;47.438;21.408;2023-02-28T08:14:18;15.00;;;6.43;;
78312;SDS011;67568;47.438;21.408;2023-02-28T08:16:44;15.93;;;6.72;;
78312;SDS011;67568;47.438;21.408;2023-02-28T08:19:14;17.27;;;9.05;;
78312;SDS011;67568;47.438;21.408;2023-02-28T08:21:41;13.98;;;6.57;;
78312;SDS011;67568;47.438;21.408;2023-02-28T08:24:19;13.37;;;6.27;;
78312;SDS011;67568;47.438;21.408;2023-02-28T08:27:03;13.73;;;6.43;;
78312;SDS011;67568;47.438;21.408;2023-02-28T08:29:29;15.05;;;6.80;;
78312;SDS011;67568;47.438;21.408;2023-02-28T08:31:56;12.60;;;6.28;;
78312;SDS011;67568;47.438;21.408;2023-02-28T08:34:26;12.85;;;6.32;;
78312;SDS011;67568;47.438;21.408;2023-02-28T08:36:52;13.30;;;6.87;;
78312;SDS011;67568;47.438;21.408;2023-02-28T08:39:22;13.27;;;5.90;;
78312;SDS011;67568;47.438;21.408;2023-02-28T08:41:48;14.75;;;7.10;;
78312;SDS011;67568;47.438;21.408;2023-02-28T08:44:32;15.38;;;7.28;;
78312;SDS011;67568;47.438;21.408;2023-02-28T08:46:58;13.90;;;6.88;;
78312;SDS011;67568;47.438;21.408;2023-02-28T08:49:25;14.10;;;5.87;;
78312;SDS011;67568;47.438;21.408;2023-02-28T08:51:52;14.88;;;6.32;;
78312;SDS011;67568;47.438;21.408;2023-02-28T08:54:20;13.82;;;6.78;;
78312;SDS011;67568;47.438;21.408;2023-02-28T08:56:47;14.60;;;6.63;;
78312;SDS011;67568;47.438;21.408;2023-02-28T08:59:14;14.23;;;7.40;;
78312;SDS011;67568;47.438;21.408;2023-02-28T09:01:45;12.37;;;5.27;;
78312;SDS011;67568;47.438;21.408;2023-02-28T09:04:14;12.23;;;5.43;;
78312;SDS011;67568;47.438;21.408;2023-02-28T09:06:45;14.25;;;6.00;;
78312;SDS011;67568;47.438;21.408;2023-02-28T09:09:12;13.35;;;6.45;;
78312;SDS011;67568;47.438;21.408;2023-02-28T09:11:44;11.48;;;5.80;;
78312;SDS011;67568;47.438;21.408;2023-02-28T09:14:11;13.03;;;5.57;;
78312;SDS011;67568;47.438;21.408;2023-02-28T09:16:38;10.35;;;5.43;;
78312;SDS011;67568;47.438;21.408;2023-02-28T09:19:12;11.20;;;5.65;;
78312;SDS011;67568;47.438;21.408;2023-02-28T09:21:45;12.30;;;6.05;;
78312;SDS011;67568;47.438;21.408;2023-02-28T09:24:12;15.35;;;8.00;;
78312;SDS011;67568;47.438;21.408;2023-02-28T09:26:38;14.53;;;6.53;;
78312;SDS011;67568;47.438;21.408;2023-02-28T09:29:16;17.45;;;7.40;;
78312;SDS011;67568;47.438;21.408;2023-02-28T09:31:43;12.50;;;6.20;;
78312;SDS011;67568;47.438;21.408;2023-02-28T09:34:14;12.10;;;5.90;;
78312;SDS011;67568;47.438;21.408;2023-02-28T09:36:41;12.48;;;6.60;;
78312;SDS011;67568;47.438;21.408;2023-02-28T09:39:12;13.77;;;6.17;;
78312;SDS011;67568;47.438;21.408;2023-02-28T09:41:48;15.02;;;7.03;;
78312;SDS011;67568;47.438;21.408;2023-02-28T09:44:38;15.43;;;7.03;;
78312;SDS011;67568;47.438;21.408;2023-02-28T09:49:59;11.95;;;6.32;;
78312;SDS011;67568;47.438;21.408;2023-02-28T09:52:42;13.30;;;6.60;;
78312;SDS011;67568;47.438;21.408;2023-02-28T09:58:09;17.75;;;7.72;;
78312;SDS011;67568;47.438;21.408;2023-02-28T10:00:46;14.00;;;7.13;;
78312;SDS011;67568;47.438;21.408;2023-02-28T10:05:56;11.77;;;6.23;;
78312;SDS011;67568;47.438;21.408;2023-02-28T10:08:26;19.42;;;8.98;;
78312;SDS011;67568;47.438;21.408;2023-02-28T10:11:00;13.82;;;7.15;;
78312;SDS011;67568;47.438;21.408;2023-02-28T10:22:14;13.80;;;6.20;;
78312;SDS011;67568;47.438;21.408;2023-02-28T10:25:27;12.80;;;6.88;;
78312;SDS011;67568;47.438;21.408;2023-02-28T10:28:07;14.50;;;6.63;;
78312;SDS011;67568;47.438;21.408;2023-02-28T10:30:48;17.98;;;7.75;;
78312;SDS011;67568;47.438;21.408;2023-02-28T10:33:18;14.53;;;7.80;;
78312;SDS011;67568;47.438;21.408;2023-02-28T10:35:55;14.30;;;7.43;;
78312;SDS011;67568;47.438;21.408;2023-02-28T10:38:23;16.30;;;7.43;;
78312;SDS011;67568;47.438;21.408;2023-02-28T10:41:03;15.77;;;7.88;;
78312;SDS011;67568;47.438;21.408;2023-02-28T10:43:30;13.70;;;6.82;;
78312;SDS011;67568;47.438;21.408;2023-02-28T10:46:02;15.43;;;7.33;;
78312;SDS011;67568;47.438;21.408;2023-02-28T10:48:38;21.77;;;12.60;;
78312;SDS011;67568;47.438;21.408;2023-02-28T10:51:08;14.13;;;7.20;;
78312;SDS011;67568;47.438;21.408;2023-02-28T10:53:50;19.35;;;7.63;;
78312;SDS011;67568;47.438;21.408;2023-02-28T10:56:28;17.45;;;8.13;;
78312;SDS011;67568;47.438;21.408;2023-02-28T10:58:58;15.07;;;7.43;;
78312;SDS011;67568;47.438;21.408;2023-02-28T11:03:59;16.73;;;7.90;;
78312;SDS011;67568;47.438;21.408;2023-02-28T11:06:32;16.88;;;7.78;;
78312;SDS011;67568;47.438;21.408;2023-02-28T11:09:04;14.95;;;7.35;;
78312;SDS011;67568;47.438;21.408;2023-02-28T11:11:45;19.40;;;10.60;;
78312;SDS011;67568;47.438;21.408;2023-02-28T11:14:21;14.85;;;7.80;;
78312;SDS011;67568;47.438;21.408;2023-02-28T11:16:52;15.65;;;7.55;;
78312;SDS011;67568;47.438;21.408;2023-02-28T11:19:22;16.33;;;7.78;;
78312;SDS011;67568;47.438;21.408;2023-02-28T11:21:59;16.35;;;8.10;;
78312;SDS011;67568;47.438;21.408;2023-02-28T11:24:31;18.30;;;7.90;;
78312;SDS011;67568;47.438;21.408;2023-02-28T11:29:57;16.10;;;7.65;;
78312;SDS011;67568;47.438;21.408;2023-02-28T11:32:29;16.95;;;8.43;;
78312;SDS011;67568;47.438;21.408;2023-02-28T11:37:31;15.13;;;7.50;;
78312;SDS011;67568;47.438;21.408;2023-02-28T11:39:59;14.23;;;7.60;;
78312;SDS011;67568;47.438;21.408;2023-02-28T11:42:38;15.40;;;7.57;;
78312;SDS011;67568;47.438;21.408;2023-02-28T11:50:47;14.17;;;7.13;;
78312;SDS011;67568;47.438;21.408;2023-02-28T11:53:33;20.73;;;8.25;;
78312;SDS011;67568;47.438;21.408;2023-02-28T12:18:51;14.20;;;7.10;;
78312;SDS011;67568;47.438;21.408;2023-02-28T12:26:38;15.45;;;7.70;;
78312;SDS011;67568;47.438;21.408;2023-02-28T12:32:01;20.27;;;11.00;;
78312;SDS011;67568;47.438;21.408;2023-02-28T12:34:35;37.63;;;19.90;;
78312;SDS011;67568;47.438;21.408;2023-02-28T12:37:07;17.90;;;9.85;;
78312;SDS011;67568;47.438;21.408;2023-02-28T12:39:46;16.45;;;8.50;;
78312;SDS011;67568;47.438;21.408;2023-02-28T12:42:19;15.98;;;8.60;;
78312;SDS011;67568;47.438;21.408;2023-02-28T12:44:54;17.37;;;7.90;;
78312;SDS011;67568;47.438;21.408;2023-02-28T12:47:25;16.17;;;7.90;;
78312;SDS011;67568;47.438;21.408;2023-02-28T12:49:54;15.40;;;7.97;;
78312;SDS011;67568;47.438;21.408;2023-02-28T12:55:27;15.50;;;7.78;;
78312;SDS011;67568;47.438;21.408;2023-02-28T13:00:43;13.73;;;7.40;;
78312;SDS011;67568;47.438;21.408;2023-02-28T13:09:11;15.50;;;8.07;;
78312;SDS011;67568;47.438;21.408;2023-02-28T13:11:42;13.30;;;7.57;;
78312;SDS011;67568;47.438;21.408;2023-02-28T13:19:37;14.95;;;7.53;;
78312;SDS011;67568;47.438;21.408;2023-02-28T13:28:10;15.70;;;8.80;;
78312;SDS011;67568;47.438;21.408;2023-02-28T13:31:22;15.60;;;8.45;;
78312;SDS011;67568;47.438;21.408;2023-02-28T13:33:34;48.92;;;22.27;;
78312;SDS011;67568;47.438;21.408;2023-02-28T13:38:52;17.90;;;9.00;;
78312;SDS011;67568;47.438;21.408;2023-02-28T13:49:26;15.05;;;7.60;;
78312;SDS011;67568;47.438;21.408;2023-02-28T14:11:56;20.48;;;8.70;;
78312;SDS011;67568;47.438;21.408;2023-02-28T14:17:05;16.52;;;8.40;;
78312;SDS011;67568;47.438;21.408;2023-02-28T14:19:46;14.20;;;7.60;;
78312;SDS011;67568;47.438;21.408;2023-02-28T14:25:22;19.40;;;8.65;;
78312;SDS011;67568;47.438;21.408;2023-02-28T14:28:07;20.80;;;10.60;;
78312;SDS011;67568;47.438;21.408;2023-02-28T14:30:57;18.92;;;8.63;;
78312;SDS011;67568;47.438;21.408;2023-02-28T14:33:47;19.33;;;8.93;;
78312;SDS011;67568;47.438;21.408;2023-02-28T14:36:36;17.05;;;8.48;;
78312;SDS011;67568;47.438;21.408;2023-02-28T14:39:10;16.83;;;8.50;;
78312;SDS011;67568;47.438;21.408;2023-02-28T14:41:43;22.77;;;8.57;;
78312;SDS011;67568;47.438;21.408;2023-02-28T14:44:15;15.98;;;8.23;;
78312;SDS011;67568;47.438;21.408;2023-02-28T14:46:51;14.47;;;7.70;;
78312;SDS011;67568;47.438;21.408;2023-02-28T14:54:44;16.50;;;8.52;;
78312;SDS011;67568;47.438;21.408;2023-02-28T14:57:24;16.27;;;8.07;;
78312;SDS011;67568;47.438;21.408;2023-02-28T15:02:41;16.20;;;8.55;;
78312;SDS011;67568;47.438;21.408;2023-02-28T15:07:39;19.75;;;9.30;;
78312;SDS011;67568;47.438;21.408;2023-02-28T15:10:09;16.67;;;8.70;;
78312;SDS011;67568;47.438;21.408;2023-02-28T15:12:45;20.20;;;8.30;;
78312;SDS011;67568;47.438;21.408;2023-02-28T15:15:27;19.55;;;8.48;;
78312;SDS011;67568;47.438;21.408;2023-02-28T15:21:35;15.35;;;8.23;;
78312;SDS011;67568;47.438;21.408;2023-02-28T15:26:45;14.43;;;7.87;;
78312;SDS011;67568;47.438;21.408;2023-02-28T15:29:26;15.18;;;7.85;;
78312;SDS011;67568;47.438;21.408;2023-02-28T15:32:03;15.57;;;8.30;;
78312;SDS011;67568;47.438;21.408;2023-02-28T15:34:39;21.35;;;8.35;;
78312;SDS011;67568;47.438;21.408;2023-02-28T15:45:41;15.63;;;8.32;;
78312;SDS011;67568;47.438;21.408;2023-02-28T15:48:13;16.83;;;8.73;;
78312;SDS011;67568;47.438;21.408;2023-02-28T15:50:44;20.23;;;8.82;;
78312;SDS011;67568;47.438;21.408;2023-02-28T15:53:14;18.03;;;10.13;;
78312;SDS011;67568;47.438;21.408;2023-02-28T15:55:44;19.38;;;10.38;;
78312;SDS011;67568;47.438;21.408;2023-02-28T15:58:11;21.08;;;10.88;;
78312;SDS011;67568;47.438;21.408;2023-02-28T16:00:39;18.88;;;9.43;;
78312;SDS011;67568;47.438;21.408;2023-02-28T16:03:22;16.42;;;8.38;;
78312;SDS011;67568;47.438;21.408;2023-02-28T16:08:47;16.35;;;9.32;;
78312;SDS011;67568;47.438;21.408;2023-02-28T16:11:14;16.38;;;7.90;;
78312;SDS011;67568;47.438;21.408;2023-02-28T16:13:41;17.27;;;8.25;;
78312;SDS011;67568;47.438;21.408;2023-02-28T16:16:14;18.17;;;8.82;;
78312;SDS011;67568;47.438;21.408;2023-02-28T16:18:53;16.30;;;8.53;;
78312;SDS011;67568;47.438;21.408;2023-02-28T16:21:26;15.48;;;8.52;;
78312;SDS011;67568;47.438;21.408;2023-02-28T16:23:56;20.98;;;10.10;;
78312;SDS011;67568;47.438;21.408;2023-02-28T16:26:23;22.75;;;11.20;;
78312;SDS011;67568;47.438;21.408;2023-02-28T16:28:51;20.50;;;10.27;;
78312;SDS011;67568;47.438;21.408;2023-02-28T16:31:18;17.57;;;9.53;;
78312;SDS011;67568;47.438;21.408;2023-02-28T16:33:46;20.52;;;8.75;;
78312;SDS011;67568;47.438;21.408;2023-02-28T16:36:14;18.48;;;9.82;;
78312;SDS011;67568;47.438;21.408;2023-02-28T16:38:43;16.67;;;8.77;;
78312;SDS011;67568;47.438;21.408;2023-02-28T16:41:12;16.48;;;8.98;;
78312;SDS011;67568;47.438;21.408;2023-02-28T16:43:43;16.10;;;9.00;;
78312;SDS011;67568;47.438;21.408;2023-02-28T16:46:11;17.02;;;9.30;;
78312;SDS011;67568;47.438;21.408;2023-02-28T16:48:38;16.98;;;9.85;;
78312;SDS011;67568;47.438;21.408;2023-02-28T16:51:08;16.40;;;9.05;;
78312;SDS011;67568;47.438;21.408;2023-02-28T16:53:37;18.35;;;8.95;;
78312;SDS011;67568;47.438;21.408;2023-02-28T16:56:04;19.87;;;10.00;;
78312;SDS011;67568;47.438;21.408;2023-02-28T16:58:34;22.80;;;10.68;;
78312;SDS011;67568;47.438;21.408;2023-02-28T17:01:01;19.27;;;10.02;;
78312;SDS011;67568;47.438;21.408;2023-02-28T17:03:28;19.02;;;9.40;;
78312;SDS011;67568;47.438;21.408;2023-02-28T17:05:59;17.73;;;9.38;;
78312;SDS011;67568;47.438;21.408;2023-02-28T17:08:26;16.97;;;8.87;;
78312;SDS011;67568;47.438;21.408;2023-02-28T17:10:53;16.70;;;8.80;;
78312;SDS011;67568;47.438;21.408;2023-02-28T17:13:22;20.48;;;9.98;;
78312;SDS011;67568;47.438;21.408;2023-02-28T17:15:49;22.58;;;10.25;;
78312;SDS011;67568;47.438;21.408;2023-02-28T17:18:17;21.40;;;9.98;;
78312;SDS011;67568;47.438;21.408;2023-02-28T17:20:45;18.63;;;9.90;;
78312;SDS011;67568;47.438;21.408;2023-02-28T17:23:12;23.15;;;10.73;;
78312;SDS011;67568;47.438;21.408;2023-02-28T17:25:39;25.67;;;9.93;;
78312;SDS011;67568;47.438;21.408;2023-02-28T17:28:10;17.60;;;8.98;;
78312;SDS011;67568;47.438;21.408;2023-02-28T17:30:36;17.90;;;9.55;;
78312;SDS011;67568;47.438;21.408;2023-02-28T17:33:03;16.33;;;8.03;;
78312;SDS011;67568;47.438;21.408;2023-02-28T17:35:30;18.20;;;8.98;;
78312;SDS011;67568;47.438;21.408;2023-02-28T17:37:56;16.80;;;8.13;;
78312;SDS011;67568;47.438;21.408;2023-02-28T17:40:23;17.42;;;8.07;;
78312;SDS011;67568;47.438;21.408;2023-02-28T17:42:50;13.23;;;7.43;;
78312;SDS011;67568;47.438;21.408;2023-02-28T17:45:17;17.13;;;8.30;;
78312;SDS011;67568;47.438;21.408;2023-02-28T17:47:45;16.90;;;7.97;;
78312;SDS011;67568;47.438;21.408;2023-02-28T17:50:16;15.40;;;8.05;;
78312;SDS011;67568;47.438;21.408;2023-02-28T17:52:44;16.88;;;8.63;;
78312;SDS011;67568;47.438;21.408;2023-02-28T17:55:11;19.65;;;9.05;;